createdAt,value
2023-03-26T00:02:45.341Z,99925.06
2023-03-26T00:07:48.719Z,99922.63
2023-03-26T00:12:51.295Z,99922.31
2023-03-26T00:17:54.339Z,99922.63
2023-03-26T00:22:56.667Z,99920.97
2023-03-26T00:27:58.975Z,99921.78
2023-03-26T00:33:02.094Z,99921.78
2023-03-26T00:38:04.559Z,99917.97
2023-03-26T00:43:18.587Z,99924.81
2023-03-26T00:48:28.963Z,99922.06
2023-03-26T00:53:41.312Z,99910.28
2023-03-26T00:58:43.929Z,99906.75
2023-03-26T01:04:00.835Z,99908.63
2023-03-26T01:09:19.052Z,99895.47
2023-03-26T01:14:25.112Z,99902.00
2023-03-26T01:19:47.630Z,99891.81
2023-03-26T01:24:54.177Z,99903.84
2023-03-26T01:30:13.712Z,99893.09
2023-03-26T01:35:30.605Z,99906.09
2023-03-26T01:40:42.881Z,99908.78
2023-03-26T01:45:47.759Z,99904.97
2023-03-26T01:50:53.670Z,99915.00
2023-03-26T01:56:18.783Z,99918.31
2023-03-26T02:01:36.891Z,99910.78
2023-03-26T02:07:02.121Z,99912.19
2023-03-26T02:12:06.457Z,99927.94
2023-03-26T02:17:10.783Z,99934.91
2023-03-26T02:22:15.772Z,99931.44
2023-03-26T02:27:18.570Z,99931.41
2023-03-26T02:32:20.736Z,99940.81
2023-03-26T02:37:22.845Z,99931.44
2023-03-26T02:42:24.947Z,99931.38
2023-03-26T02:47:27.089Z,99917.19
2023-03-26T02:52:29.764Z,99915.00
2023-03-26T02:57:31.909Z,99911.28
2023-03-26T03:02:34.081Z,99906.47
2023-03-26T03:07:38.654Z,99910.78
2023-03-26T03:12:41.717Z,99915.31
2023-03-26T03:17:44.188Z,99909.03
2023-03-26T03:22:46.427Z,99911.91
2023-03-26T03:27:48.616Z,99918.41
2023-03-26T03:32:51.162Z,99907.38
2023-03-26T03:37:53.875Z,99909.91
2023-03-26T03:42:56.120Z,99909.34
2023-03-26T03:47:58.668Z,99910.13
2023-03-26T03:53:01.164Z,99918.66
2023-03-26T03:58:03.810Z,99931.41
2023-03-26T04:03:06.659Z,99938.47
2023-03-26T04:08:08.921Z,99922.34
2023-03-26T04:13:12.662Z,99924.25
2023-03-26T04:18:14.853Z,99935.34
2023-03-26T04:23:18.939Z,99938.31
2023-03-26T04:28:54.938Z,99939.03
2023-03-26T04:34:05.897Z,99925.66
2023-03-26T04:39:11.710Z,99932.37
2023-03-26T04:44:17.170Z,99930.00
2023-03-26T04:49:19.938Z,99935.25
2023-03-26T04:54:24.443Z,99936.31
2023-03-26T04:59:30.549Z,99935.78
2023-03-26T05:04:36.925Z,99949.09
2023-03-26T05:09:39.135Z,99932.31
2023-03-26T05:14:41.340Z,99928.31
2023-03-26T05:19:43.507Z,99920.56
2023-03-26T05:24:46.173Z,99922.63
2023-03-26T05:29:48.289Z,99926.44
2023-03-26T05:34:51.076Z,99922.06
2023-03-26T05:39:56.044Z,99918.50
2023-03-26T05:44:58.241Z,99922.63
2023-03-26T05:50:01.036Z,99925.06
2023-03-26T05:55:03.613Z,99932.50
2023-03-26T06:00:11.685Z,99935.25
2023-03-26T06:05:13.994Z,99934.38
2023-03-26T06:10:18.437Z,99926.41
2023-03-26T06:15:21.464Z,99925.56
2023-03-26T06:20:23.720Z,99924.19
2023-03-26T06:25:26.069Z,99917.03
2023-03-26T06:30:28.224Z,99914.56
2023-03-26T06:35:31.535Z,99910.37
2023-03-26T06:40:34.000Z,99918.13
2023-03-26T06:45:37.632Z,99919.03
2023-03-26T06:50:39.742Z,99918.41
2023-03-26T06:55:41.989Z,99924.84
2023-03-26T07:00:44.223Z,99927.72
2023-03-26T07:05:47.130Z,99923.66
2023-03-26T07:10:49.244Z,99918.63
2023-03-26T07:15:51.474Z,99922.75
2023-03-26T07:20:55.745Z,99904.28
2023-03-26T07:25:58.702Z,99901.34
2023-03-26T07:31:16.409Z,99901.28
2023-03-26T07:36:28.398Z,99898.31
2023-03-26T07:41:55.976Z,99901.22
2023-03-26T07:47:01.893Z,99910.31
2023-03-26T07:52:04.209Z,99909.03
2023-03-26T07:57:16.103Z,99897.13
2023-03-26T08:02:48.265Z,99888.44
2023-03-26T08:08:02.894Z,99895.22
2023-03-26T08:13:20.499Z,99898.25
2023-03-26T08:18:27.552Z,99909.31
2023-03-26T08:23:56.613Z,99901.31
2023-03-26T08:29:10.521Z,99905.47
2023-03-26T08:34:13.847Z,99915.25
2023-03-26T08:39:16.028Z,99909.69
2023-03-26T08:44:27.274Z,99899.50
2023-03-26T08:49:46.496Z,99899.75
2023-03-26T08:55:13.675Z,99898.56
2023-03-26T09:00:54.415Z,99891.25
2023-03-26T09:06:34.415Z,99884.09
2023-03-26T09:11:59.398Z,99883.81
2023-03-26T09:17:17.544Z,99881.44
2023-03-26T09:22:53.501Z,99863.66
2023-03-26T09:28:11.529Z,99872.44
2023-03-26T09:33:53.820Z,99859.78
2023-03-26T09:39:25.198Z,99851.22
2023-03-26T09:44:47.228Z,99852.41
2023-03-26T09:50:29.853Z,99848.75
2023-03-26T09:55:56.760Z,99837.22
2023-03-26T10:01:34.224Z,99833.50
2023-03-26T10:06:56.852Z,99804.63
2023-03-26T10:12:23.506Z,99800.09
2023-03-26T10:17:36.955Z,99782.63
2023-03-26T10:23:00.540Z,99771.53
2023-03-26T10:28:31.082Z,99780.78
2023-03-26T10:34:01.349Z,99778.72
2023-03-26T10:39:36.309Z,99776.84
2023-03-26T10:45:00.644Z,99775.84
2023-03-26T10:50:16.988Z,99785.03
2023-03-26T10:55:29.620Z,99759.69
2023-03-26T11:00:37.785Z,99764.56
2023-03-26T11:05:45.847Z,99760.03
2023-03-26T11:10:50.930Z,99751.28
2023-03-26T11:16:02.501Z,99720.09
2023-03-26T11:21:27.663Z,99716.03
2023-03-26T11:26:55.601Z,99723.81
2023-03-26T11:32:03.398Z,99689.97
2023-03-26T11:37:15.251Z,99666.44
2023-03-26T11:42:22.861Z,99678.81
2023-03-26T11:47:44.082Z,99654.22
2023-03-26T11:52:47.141Z,99641.66
2023-03-26T11:57:54.882Z,99634.06
2023-03-26T12:02:59.335Z,99620.78
2023-03-26T12:08:17.887Z,99607.44
2023-03-26T12:13:26.584Z,99588.94
2023-03-26T12:18:28.802Z,99582.00
2023-03-26T12:23:58.816Z,99573.97
2023-03-26T12:29:11.619Z,99557.13
2023-03-26T12:34:16.852Z,99545.28
2023-03-26T12:40:07.431Z,99536.56
2023-03-26T12:44:59.588Z,99528.03
2023-03-26T12:50:03.761Z,99511.78
2023-03-26T12:55:24.817Z,99498.47
2023-03-26T13:00:46.510Z,99509.19
2023-03-26T13:06:30.439Z,99475.75
2023-03-26T13:11:51.425Z,99495.53
2023-03-26T13:17:08.607Z,99474.34
2023-03-26T13:22:26.537Z,99461.75
2023-03-26T13:27:40.532Z,99439.91
2023-03-26T13:32:54.172Z,99442.00
2023-03-26T13:38:04.918Z,99456.75
2023-03-26T13:43:09.957Z,99429.13
2023-03-26T13:48:22.174Z,99427.44
2023-03-26T13:53:36.953Z,99405.44
2023-03-26T13:58:52.600Z,99407.66
2023-03-26T14:04:19.868Z,99388.72
2023-03-26T14:09:54.694Z,99374.78
2023-03-26T14:15:13.161Z,99364.75
2023-03-26T14:20:33.389Z,99368.91
2023-03-26T14:26:28.266Z,99361.91
2023-03-26T14:31:50.331Z,99360.66
2023-03-26T14:37:14.677Z,99347.03
2023-03-26T14:42:34.201Z,99339.72
2023-03-26T14:47:56.112Z,99331.81
2023-03-26T14:53:04.618Z,99327.41
2023-03-26T14:58:25.199Z,99311.69
2023-03-26T15:03:59.247Z,99304.06
2023-03-26T15:09:23.419Z,99297.03
2023-03-26T15:14:28.637Z,99286.22
2023-03-26T15:19:50.590Z,99286.84
2023-03-26T15:25:26.802Z,99282.91
2023-03-26T15:30:30.223Z,99269.06
2023-03-26T15:35:41.682Z,99257.53
2023-03-26T15:41:01.904Z,99250.19
2023-03-26T15:46:51.158Z,99253.94
2023-03-26T15:52:06.457Z,99250.06
2023-03-26T15:57:19.992Z,99236.66
2023-03-26T16:02:54.739Z,99242.97
2023-03-26T16:08:21.502Z,99229.88
2023-03-26T16:13:37.803Z,99217.91
2023-03-26T16:18:42.272Z,99203.41
2023-03-26T16:23:47.852Z,99184.56
2023-03-26T16:28:53.512Z,99191.81
2023-03-26T16:34:04.826Z,99177.09
2023-03-26T16:39:08.424Z,99175.94
2023-03-26T16:44:33.103Z,99174.28
2023-03-26T16:49:46.743Z,99183.53
2023-03-26T16:55:47.008Z,99181.75
2023-03-26T17:01:04.387Z,99184.22
2023-03-26T17:06:31.639Z,99178.16
2023-03-26T17:11:36.316Z,99184.47
2023-03-26T17:17:12.353Z,99185.81
2023-03-26T17:22:39.276Z,99188.38
2023-03-26T17:27:51.795Z,99188.25
2023-03-26T17:33:06.155Z,99187.00
2023-03-26T17:38:28.192Z,99185.50
2023-03-26T17:43:38.028Z,99192.00
2023-03-26T17:48:46.980Z,99178.47
2023-03-26T17:53:49.958Z,99185.13
2023-03-26T17:58:58.750Z,99180.34
2023-03-26T18:04:21.375Z,99180.56
2023-03-26T18:09:53.950Z,99180.88
2023-03-26T18:15:19.062Z,99183.94
2023-03-26T18:20:29.230Z,99183.88
2023-03-26T18:25:34.091Z,99183.59
2023-03-26T18:30:48.864Z,99178.22
2023-03-26T18:35:55.516Z,99160.47
2023-03-26T18:40:58.956Z,99159.16
2023-03-26T18:46:01.581Z,99150.13
2023-03-26T18:51:06.143Z,99147.34
2023-03-26T18:56:30.112Z,99142.50
2023-03-26T19:01:36.651Z,99139.28
2023-03-26T19:06:42.325Z,99128.75
2023-03-26T19:11:45.478Z,99117.09
2023-03-26T19:16:56.625Z,99102.03
2023-03-26T19:21:59.820Z,99100.09
2023-03-26T19:27:02.859Z,99103.34
2023-03-26T19:32:16.599Z,99093.87
2023-03-26T19:37:29.907Z,99086.28
2023-03-26T19:42:42.838Z,99078.37
2023-03-26T19:47:57.343Z,99073.97
2023-03-26T19:53:28.468Z,99053.94
2023-03-26T19:58:30.842Z,99047.59
2023-03-26T20:03:42.482Z,99030.22
2023-03-26T20:08:45.370Z,99021.16
2023-03-26T20:13:48.890Z,99007.84
2023-03-26T20:18:51.171Z,98993.88
2023-03-26T20:23:53.715Z,98990.00
2023-03-26T20:28:56.209Z,98980.78
2023-03-26T20:33:59.507Z,98968.78
2023-03-26T20:39:06.190Z,98963.75
2023-03-26T20:44:13.873Z,98959.00
2023-03-26T20:49:16.460Z,98946.53
2023-03-26T20:54:23.236Z,98931.28
2023-03-26T20:59:27.891Z,98937.78
2023-03-26T21:04:30.174Z,98927.88
2023-03-26T21:09:35.693Z,98924.81
2023-03-26T21:14:44.054Z,98908.59
2023-03-26T21:19:47.223Z,98908.59
2023-03-26T21:25:12.345Z,98908.12
2023-03-26T21:30:16.616Z,98931.78
2023-03-26T21:35:20.033Z,98969.25
2023-03-26T21:40:22.399Z,98965.69
2023-03-26T21:45:25.104Z,98972.31
2023-03-26T21:50:27.903Z,98963.31
2023-03-26T21:55:36.455Z,98980.66
2023-03-26T22:01:16.735Z,98985.63
2023-03-26T22:06:34.512Z,98966.31
2023-03-26T22:11:36.754Z,98974.13
2023-03-26T22:16:39.496Z,98971.03
2023-03-26T22:21:41.641Z,98959.34
2023-03-26T22:26:44.025Z,98945.62
2023-03-26T22:31:46.566Z,98933.78
2023-03-26T22:36:48.727Z,98939.91
2023-03-26T22:41:50.933Z,98933.06
2023-03-26T22:46:54.474Z,98936.22
2023-03-26T22:51:57.167Z,98937.56
2023-03-26T22:56:59.874Z,98916.09
2023-03-26T23:02:02.104Z,98913.53
2023-03-26T23:07:05.503Z,98904.50
2023-03-26T23:12:07.728Z,98887.53
2023-03-26T23:17:14.738Z,98886.16
2023-03-26T23:22:16.994Z,98892.44
2023-03-26T23:27:22.691Z,98883.00
2023-03-26T23:32:28.189Z,98875.84
2023-03-26T23:37:34.895Z,98863.84
2023-03-26T23:42:37.908Z,98856.50
2023-03-26T23:47:42.596Z,98865.00
2023-03-26T23:52:45.819Z,98846.19
2023-03-26T23:57:48.660Z,98835.25
